• Join FlightAware (Why Join?)
  • Login
  • US Flag 
03:26AM EDT


 

Airport Tracker/Info


-or-


 

Live Flight TrackerFlight Track Log ✈ SKW6306 ✈ 15-Jun-2013 ✈ KDEN - CYXE

Flight Track Log - Related Links

Times and Time Zones

All times are in EDT time to prevent confusion due to time zone crossing. See the SKW6306 flight status page for this flight to view local times or setup timezone preferences in your user account.

Time Position Orientation Groundspeed Altitude Reporting Facility
EDT Latitude Longitude Course Direction KTS MPH feet Rate Location/Type
01:53PM 39.9167 -104.6833 346° North 199 229 6,300  Level Denver TRACON
01:54PM 39.9833 -104.6667 11° North 232 267 8,000 1,500 Climbing Denver TRACON
01:55PM 40.0500 -104.6667 360° North 283 326 9,300 1,320 Climbing Denver TRACON
01:56PM 40.1824 -104.7764 347° North  Level FlightAware Approximate
01:56PM 40.0772 -104.6628 North 281 323 9,800  Level Denver Center
01:57PM 40.2940 -104.8099 347° North  Level FlightAware Approximate
01:57PM 40.1681 -104.6858 349° North 310 357 11,300  Level Denver Center
01:58PM 40.4052 -104.8461 346° North  Level FlightAware Approximate
01:58PM 40.2544 -104.7100 348° North 318 366 13,200  Level Denver Center
01:59PM 40.5162 -104.8832 346° North  Level FlightAware Approximate
01:59PM 40.3497 -104.7358 348° North 323 372 14,800  Level Denver Center
02:00PM 40.4431 -104.7589 349° North 340 391 16,100 1,320 Climbing Denver Center
02:01PM 40.5433 -104.7869 348° North 344 396 17,600 1,260 Climbing Denver Center
02:02PM 40.6414 -104.8117 349° North 358 412 18,700 1,200 Climbing Denver Center
02:03PM 40.7458 -104.8386 349° North 360 414 20,100 1,080 Climbing Denver Center
02:04PM 40.8472 -104.8781 344° North 361 415 21,000 900 Climbing Denver Center
02:05PM 40.9456 -104.9272 339° North 377 434 22,000 900 Climbing Denver Center
02:06PM 41.0506 -104.9800 339° North 386 444 22,900 780 Climbing Denver Center
02:07PM 41.1469 -105.0258 340° North 384 442 23,700 780 Climbing Denver Center
02:08PM 41.2611 -105.0825 340° North 389 448 24,600 720 Climbing Denver Center
02:09PM 41.3594 -105.1322 339° North 393 452 25,200 480 Climbing Denver Center
02:10PM 41.4597 -105.1814 340° North 398 458 25,700 660 Climbing Denver Center
02:11PM 41.5772 -105.2400 340° North 404 465 26,600 660 Climbing Denver Center
02:12PM 41.6853 -105.2597 352° North 410 472 27,100 480 Climbing Denver Center
02:13PM 41.8139 -105.2819 353° North 415 478 27,600 420 Climbing Denver Center
02:14PM 41.9253 -105.3039 352° North 419 482 28,000 540 Climbing Denver Center
02:15PM 42.0547 -105.3283 352° North 420 483 28,800 480 Climbing Denver Center
02:16PM 42.1456 -105.3458 352° North 414 476 29,100 420 Climbing Denver Center
02:17PM 42.2767 -105.3697 352° North 420 483 29,700 660 Climbing Denver Center
02:18PM 42.4069 -105.3961 351° North 423 487 30,500 660 Climbing Denver Center
02:19PM 42.5175 -105.4161 352° North 417 480 31,100 480 Climbing Denver Center
02:20PM 42.6461 -105.4403 352° North 417 480 31,600 420 Climbing Denver Center
02:22PM 42.7575 -105.4622 352° North 419 482 32,000 180 Climbing Denver Center
02:23PM 42.8875 -105.4886 352° North 421 484 32,000  Level Denver Center
02:24PM 43.0025 -105.5106 352° North 430 495 32,000  Level Denver Center
02:25PM 43.1172 -105.5331 352° North 432 497 32,000  Level Denver Center
02:26PM 43.2508 -105.5592 352° North 432 497 32,000  Level Denver Center
02:27PM 43.3642 -105.5808 352° North 430 495 32,000  Level Denver Center
02:28PM 43.4978 -105.6064 352° North 432 497 32,000  Level Denver Center
02:30PM 43.7075 -105.6464 352° North 432 497 32,000  Level Salt Lake Center
02:30PM 43.7625 -105.6583 351° North 429 494 32,000  Level Denver Center
02:31PM 43.8758 -105.6811 352° North 427 491 32,000  Level Denver Center
02:32PM 44.0067 -105.7072 352° North 426 490 32,000  Level Denver Center
02:33PM 44.1192 -105.7292 352° North 425 489 32,000  Level Denver Center
02:34PM 44.2492 -105.7583 351° North 423 487 32,000  Level Denver Center
02:35PM 44.3611 -105.7800 352° North 424 488 32,000  Level Denver Center
02:36PM 44.4375 -105.7944 352° North 425 489 32,000  Level Salt Lake Center
02:37PM 44.5492 -105.8186 351° North 425 489 32,000  Level Salt Lake Center
02:38PM 44.6806 -105.8447 352° North 426 490 32,000  Level Salt Lake Center
02:38PM 44.7250 -105.8556 350° North 426 490 32,000  Level Denver Center
02:39PM 44.8378 -105.8794 351° North 428 493 32,000  Level Denver Center
02:40PM 44.9144 -105.8925 353° North 430 495 32,000  Level Salt Lake Center
02:40PM 44.9708 -105.9064 350° North 432 497 32,000 180 Level Denver Center
02:41PM 45.0825 -105.9300 352° North 428 493 32,300 420 Climbing Denver Center
02:42PM 45.1586 -105.9453 352° North 428 493 32,700 600 Climbing Salt Lake Center
02:43PM 45.2881 -105.9719 352° North 422 486 33,300 540 Climbing Salt Lake Center
02:44PM 45.3956 -105.9947 352° North 413 475 33,900 300 Climbing Salt Lake Center
02:45PM 45.5211 -106.0214 352° North 410 472 34,000  Climbing Salt Lake Center
02:46PM 45.6314 -106.0456 351° North 416 479 34,000  Level Salt Lake Center
02:47PM 45.7614 -106.0708 352° North 421 484 34,000  Level Salt Lake Center
02:48PM 45.8694 -106.0917 352° North 416 479 34,000  Level Salt Lake Center
02:49PM 45.9817 -106.1150 352° North 419 482 34,000  Level Salt Lake Center
02:50PM 46.1158 -106.1436 352° North 429 494 34,000  Level Salt Lake Center
02:51PM 46.2328 -106.1708 351° North 437 503 34,000  Level Salt Lake Center
02:52PM 46.3664 -106.2003 351° North 437 503 34,000  Level Salt Lake Center
02:53PM 46.4814 -106.2278 351° North 436 502 34,000  Level Salt Lake Center
02:54PM 46.6144 -106.2578 351° North 436 502 34,000  Level Salt Lake Center
02:55PM 46.7267 -106.2828 351° North 431 496 34,000  Level Salt Lake Center
02:56PM 46.8592 -106.3142 351° North 430 495 34,000  Level Salt Lake Center
02:57PM 46.9708 -106.3383 352° North 428 493 34,000  Level Salt Lake Center
02:58PM 47.1022 -106.3692 351° North 427 491 34,000  Level Salt Lake Center
02:59PM 47.2144 -106.3922 352° North 426 490 34,000  Level Salt Lake Center
03:01PM 47.3444 -106.4242 351° North 424 488 34,000  Level Salt Lake Center
03:02PM 47.4589 -106.4506 351° North 423 487 34,000  Level Salt Lake Center
03:03PM 47.5742 -106.4761 351° North 419 482 34,000  Level Salt Lake Center
03:04PM 47.6897 -106.5044 351° North 420 483 34,000  Level Salt Lake Center
03:05PM 47.8056 -106.5300 352° North 420 483 34,000  Level Salt Lake Center
03:06PM 47.9211 -106.5581 351° North 421 484 34,000  Level Salt Lake Center
03:07PM 48.0614 -106.5906 351° North 424 488 34,000  Level Salt Lake Center
03:08PM 48.1769 -106.6181 351° North 422 486 34,000  Level Salt Lake Center
03:09PM 48.2900 -106.6619 346° North 421 484 34,000  Level Salt Lake Center
03:10PM 48.4000 -106.7181 341° North 419 482 34,000  Level Salt Lake Center
03:11PM 48.5086 -106.7714 342° North 415 478 34,000  Level Salt Lake Center
03:12PM 48.6200 -106.8264 342° North 417 480 34,000  Level Salt Lake Center
03:13PM 48.7303 -106.8817 342° North 418 481 34,000  Level Salt Lake Center
03:14PM 48.8617 -106.9472 342° North 417 480 34,000  Level Salt Lake Center
03:15PM 48.9786 -106.9614 355° North 421 484 34,000  Level Salt Lake Center
03:16PM 49.1011 -106.9433 North 433 498 34,000  Level Salt Lake Center
03:17PM 49.2208 -106.9256 North 434 499 34,000  Level Salt Lake Center
03:18PM 49.3167 -106.9500 351° North 430 495 34,000  Level Winnipeg Center
03:19PM 49.4500 -106.9167 North 430 495 34,000  Level Winnipeg Center
03:20PM 49.5667 -106.8833 10° North 430 495 34,000  Level Winnipeg Center
03:21PM 49.6833 -106.8833 360° North 440 506 34,000  Level Winnipeg Center
03:22PM 49.8000 -106.8667 North 440 506 34,000  Level Winnipeg Center
03:23PM 49.9167 -106.8333 10° North 430 495 34,000  Level Winnipeg Center
03:24PM 50.0333 -106.8333 360° North 430 495 34,000  Level Winnipeg Center
03:25PM 50.1833 -106.8167 North 430 495 34,000  Level Winnipeg Center
03:26PM 50.2833 -106.7833 12° North 430 495 34,000  Level Winnipeg Center
03:27PM 50.4000 -106.7833 360° North 430 495 34,000  Level Winnipeg Center
03:28PM 50.5167 -106.7500 10° North 430 495 34,000  Level Winnipeg Center
03:29PM 50.6500 -106.7333 North 430 495 34,000  Level Winnipeg Center
03:30PM 50.7500 -106.7167 North 430 495 34,000 -840 Level Winnipeg Center
03:31PM 50.8833 -106.7000 North 440 506 32,400 -2,340 Descending Winnipeg Center
03:32PM 51.0000 -106.6667 10° North 430 495 29,400 -3,180 Descending Winnipeg Center
03:33PM 51.1167 -106.6667 360° North 430 495 26,100 -3,180 Descending Winnipeg Center
03:34PM 51.2333 -106.6333 10° North 420 483 23,100 -3,000 Descending Winnipeg Center
03:35PM 51.3500 -106.6000 10° North 410 472 20,200 -2,940 Descending Winnipeg Center
03:36PM 51.4500 -106.6000 360° North 390 449 17,300 -2,760 Descending Winnipeg Center
03:37PM 51.5500 -106.6000 360° North 370 426 14,700 -2,520 Descending Winnipeg Center
03:38PM 51.6500 -106.5667 12° North 350 403 12,300 -1,860 Descending Winnipeg Center
03:39PM 51.7500 -106.5500 North 320 368 11,000 -1,200 Descending Winnipeg Center
03:40PM 51.8167 -106.5500 360° North 280 322 9,900 -1,200 Descending Winnipeg Center
03:41PM 51.8833 -106.5333 North 250 288 8,600 -1,320 Descending Winnipeg Center
03:42PM 51.9500 -106.5167 North 230 265 7,300 -1,560 Descending Winnipeg Center
03:43PM 52.0000 -106.5000 12° North 230 265 5,500 -1,620 Descending Winnipeg Center
03:44PM 52.0667 -106.4833 North 240 276 4,100 -840 Descending Winnipeg Center
03:45PM 52.1167 -106.5000 348° North 170 196 3,900 -420 Descending Winnipeg Center
03:46PM 52.1333 -106.5333 309° West 120 138 3,300 -360 Descending Winnipeg Center
03:47PM 52.1500 -106.5833 299° West 100 115 3,200 -300 Descending Winnipeg Center
03:48PM 52.1500 -106.6167 270° West 100 115 2,800 -540 Descending Winnipeg Center
03:49PM 52.1500 -106.6667 270° West 120 138 2,200 -600 Descending Winnipeg Center
03:50PM 52.1500 -106.7333 270° West 120 138 1,700 -540 Descending Winnipeg Center